Time;durP1;ratioP1;P1;durP2;ratioP2;P2;SDS_P1;SDS_P2;PMS_P1;PMS_P2;Temp;Humidity;BMP_temperature;BMP_pressure;BME280_temperature;BME280_humidity;BME280_pressure;Samples;Min_cycle;Max_cycle;Signal;HPM_P1;HPM_P2
2023/10/20 00:00:55;;;;;;;;;;;;;;;;;;5097264;28;19921;-77
2023/10/20 00:03:21;;;;;;;;;;;;;;;;;;5095211;28;20026;-78
2023/10/20 00:05:47;;;;;;;;;;;;;;;;;;5076207;28;19897;-76
2023/10/20 00:08:13;;;;;;;;;;;;;;;;;;5069129;28;20081;-77
2023/10/20 00:10:40;;;;;;;;;;;;;;;;;;5054478;28;19912;-77
2023/10/20 00:13:06;;;;;;;;;;;;;;;;;;5052907;28;20278;-77
2023/10/20 00:15:32;;;;;;;;;;;;;;;;;;5060006;28;20285;-76
2023/10/20 00:17:58;;;;;;;;;;;;;;;;;;5065016;28;19915;-77
2023/10/20 00:20:24;;;;;;;;;;;;;;;;;;5053631;28;19905;-77
2023/10/20 00:22:50;;;;;;;;;;;;;;;;;;5053701;28;19912;-77
2023/10/20 00:25:17;;;;;;;;;;;;;;;;;;5052221;28;20246;-77
2023/10/20 00:27:42;;;;;;;;;;;;;;;;;;5052785;28;19904;-77
2023/10/20 00:30:09;;;;;;;;;;;;;;;;;;5054148;28;19904;-77
2023/10/20 00:32:35;;;;;;;;;;;;;;;;;;5052629;28;19905;-77
2023/10/20 00:35:03;;;;;;;;;;;;;;;;;;5052237;28;19912;-77
2023/10/20 00:37:29;;;;;;;;;;;;;;;;;;5052817;28;19936;-77
2023/10/20 00:39:55;;;;;;;;;;;;;;;;;;5053233;28;19904;-77
2023/10/20 00:42:21;;;;;;;;;;;;;;;;;;5054840;28;19919;-77
2023/10/20 00:44:47;;;;;;;;;;;;;;;;;;5055316;28;19912;-78
2023/10/20 00:47:14;;;;;;;;;;;;;;;;;;5073062;28;19913;-78
2023/10/20 00:49:40;;;;;;;;;;;;;;;;;;5073462;28;20370;-76
2023/10/20 00:52:07;;;;;;;;;;;;;;;;;;5072836;28;19930;-76
2023/10/20 00:54:33;;;;;;;;;;;;;;;;;;5072361;28;19950;-76
2023/10/20 00:56:59;;;;;;;;;;;;;;;;;;5071537;28;20243;-76
2023/10/20 00:59:25;;;;;;;;;;;;;;;;;;5072601;28;20355;-76
2023/10/20 01:01:51;;;;;;;;;;;;;;;;;;5072591;28;19912;-77
2023/10/20 01:04:19;;;;;;;;;;;;;;;;;;5073484;28;20151;-77
2023/10/20 01:06:48;;;;;;;;;;;;;;;;;;5072411;28;20010;-77
2023/10/20 01:09:16;;;;;;;;;;;;;;;;;;5073103;28;19909;-78
2023/10/20 01:11:42;;;;;;;;;;;;;;;;;;5070877;28;20390;-75
2023/10/20 01:14:07;;;;;;;;;;;;;;;;;;5070819;28;20077;-77
2023/10/20 01:16:33;;;;;;;;;;;;;;;;;;5069935;28;19912;-76
2023/10/20 01:19:00;;;;;;;;;;;;;;;;;;5062235;28;20355;-76
2023/10/20 01:21:26;;;;;;;;;;;;;;;;;;5051208;28;19983;-78
2023/10/20 01:23:53;;;;;;;;;;;;;;;;;;5052091;28;19916;-77
2023/10/20 01:26:19;;;;;;;;;;;;;;;;;;5052378;28;19955;-78
2023/10/20 01:28:45;;;;;;;;;;;;;;;;;;5052722;28;20329;-77
2023/10/20 01:31:12;;;;;;;;;;;;;;;;;;5052101;28;19909;-76
2023/10/20 01:33:38;;;;;;;;;;;;;;;;;;5052644;28;19905;-77
2023/10/20 01:36:04;;;;;;;;;;;;;;;;;;5058500;28;19911;-76
2023/10/20 01:38:30;;;;;;;;;;;;;;;;;;5072078;28;19904;-77
2023/10/20 01:40:56;;;;;;;;;;;;;;;;;;5072408;28;19939;-76
2023/10/20 01:43:22;;;;;;;;;;;;;;;;;;5071363;28;19935;-77
2023/10/20 01:45:48;;;;;;;;;;;;;;;;;;5069074;28;19958;-77
2023/10/20 01:48:14;;;;;;;;;;;;;;;;;;5068536;28;19909;-77
2023/10/20 01:50:40;;;;;;;;;;;;;;;;;;5065693;28;19908;-77
2023/10/20 01:53:06;;;;;;;;;;;;;;;;;;5052576;28;19924;-77
2023/10/20 01:55:32;;;;;;;;;;;;;;;;;;5051747;28;19904;-76
2023/10/20 01:57:58;;;;;;;;;;;;;;;;;;5058234;28;19939;-76
2023/10/20 02:00:24;;;;;;;;;;;;;;;;;;5070319;28;19927;-77
2023/10/20 02:02:50;;;;;;;;;;;;;;;;;;5073012;28;19908;-77
2023/10/20 02:05:16;;;;;;;;;;;;;;;;;;5070964;28;19953;-77
2023/10/20 02:07:42;;;;;;;;;;;;;;;;;;5067958;28;19912;-77
2023/10/20 02:10:08;;;;;;;;;;;;;;;;;;5069035;28;19989;-76
2023/10/20 02:12:34;;;;;;;;;;;;;;;;;;5072525;28;19973;-77
2023/10/20 02:15:00;;;;;;;;;;;;;;;;;;5071074;28;19908;-77
2023/10/20 02:17:26;;;;;;;;;;;;;;;;;;5063352;28;19905;-77
2023/10/20 02:19:52;;;;;;;;;;;;;;;;;;5065111;28;19991;-78
2023/10/20 02:22:18;;;;;;;;;;;;;;;;;;5075612;28;19919;-78
2023/10/20 02:24:44;;;;;;;;;;;;;;;;;;5075705;28;19917;-77
2023/10/20 02:27:10;;;;;;;;;;;;;;;;;;5056656;28;19913;-78
2023/10/20 02:29:36;;;;;;;;;;;;;;;;;;5064988;28;19965;-77
2023/10/20 02:32:02;;;;;;;;;;;;;;;;;;5073947;28;19908;-77
2023/10/20 02:34:28;;;;;;;;;;;;;;;;;;5072436;28;19967;-77
2023/10/20 02:36:54;;;;;;;;;;;;;;;;;;5074982;28;19904;-76
2023/10/20 02:39:20;;;;;;;;;;;;;;;;;;5072408;28;19904;-77
2023/10/20 02:41:46;;;;;;;;;;;;;;;;;;5075137;28;19970;-77
2023/10/20 02:44:13;;;;;;;;;;;;;;;;;;5078675;28;20276;-77
2023/10/20 02:46:39;;;;;;;;;;;;;;;;;;5073511;28;19912;-77
2023/10/20 02:49:05;;;;;;;;;;;;;;;;;;5074567;28;19904;-78
2023/10/20 02:51:31;;;;;;;;;;;;;;;;;;5074907;28;19923;-78
2023/10/20 02:53:57;;;;;;;;;;;;;;;;;;5076844;28;19905;-77
2023/10/20 02:56:23;;;;;;;;;;;;;;;;;;5074720;28;19965;-77
2023/10/20 02:58:49;;;;;;;;;;;;;;;;;;5074667;28;19905;-77
2023/10/20 03:01:15;;;;;;;;;;;;;;;;;;5073792;28;20254;-77
2023/10/20 03:03:41;;;;;;;;;;;;;;;;;;5075701;28;19905;-76
2023/10/20 03:06:07;;;;;;;;;;;;;;;;;;5074151;28;20279;-77
2023/10/20 03:08:33;;;;;;;;;;;;;;;;;;5075803;28;20263;-77
2023/10/20 03:10:59;;;;;;;;;;;;;;;;;;5064229;28;19916;-76
2023/10/20 03:13:25;;;;;;;;;;;;;;;;;;5066015;28;19911;-76
2023/10/20 03:15:51;;;;;;;;;;;;;;;;;;5073643;28;19912;-77
2023/10/20 03:18:17;;;;;;;;;;;;;;;;;;5067319;28;19905;-77
2023/10/20 03:20:43;;;;;;;;;;;;;;;;;;5059049;28;19916;-77
2023/10/20 03:23:09;;;;;;;;;;;;;;;;;;5074205;28;19940;-77
2023/10/20 03:25:36;;;;;;;;;;;;;;;;;;5074809;28;20315;-77
2023/10/20 03:28:03;;;;;;;;;;;;;;;;;;5074785;28;19904;-77
2023/10/20 03:30:29;;;;;;;;;;;;;;;;;;5074491;28;19912;-76
2023/10/20 03:32:55;;;;;;;;;;;;;;;;;;5074395;28;19908;-77
2023/10/20 03:35:21;;;;;;;;;;;;;;;;;;5074991;28;19904;-76
2023/10/20 03:37:51;;;;;;;;;;;;;;;;;;5073389;28;19904;-77
2023/10/20 03:40:17;;;;;;;;;;;;;;;;;;5075448;28;20102;-76
2023/10/20 03:42:43;;;;;;;;;;;;;;;;;;5073076;28;20456;-77
2023/10/20 03:45:10;;;;;;;;;;;;;;;;;;5072382;28;19979;-77
2023/10/20 03:47:38;;;;;;;;;;;;;;;;;;5066653;28;19908;-76
2023/10/20 03:50:04;;;;;;;;;;;;;;;;;;5070099;28;20366;-76
2023/10/20 03:52:30;;;;;;;;;;;;;;;;;;5069852;28;19908;-76
2023/10/20 03:54:56;;;;;;;;;;;;;;;;;;5059985;28;20004;-76
2023/10/20 03:57:22;;;;;;;;;;;;;;;;;;5063753;28;20390;-77
2023/10/20 03:59:48;;;;;;;;;;;;;;;;;;5074996;28;19986;-76
2023/10/20 04:02:14;;;;;;;;;;;;;;;;;;5066433;28;20278;-76
2023/10/20 04:04:40;;;;;;;;;;;;;;;;;;5068151;28;19915;-76
2023/10/20 04:07:07;;;;;;;;;;;;;;;;;;5074869;28;19908;-75
2023/10/20 04:09:33;;;;;;;;;;;;;;;;;;5075109;28;19916;-76
2023/10/20 04:11:59;;;;;;;;;;;;;;;;;;5074703;28;19905;-76
2023/10/20 04:14:25;;;;;;;;;;;;;;;;;;5075556;28;19911;-78
2023/10/20 04:16:51;;;;;;;;;;;;;;;;;;5079050;28;19914;-77
2023/10/20 04:19:17;;;;;;;;;;;;;;;;;;5073264;28;20313;-76
2023/10/20 04:21:45;;;;;;;;;;;;;;;;;;5074623;28;19915;-76
2023/10/20 04:24:11;;;;;;;;;;;;;;;;;;5074335;28;19977;-76
2023/10/20 04:26:37;;;;;;;;;;;;;;;;;;5074548;28;19904;-76
2023/10/20 04:53:53;;;;;;;;;;;;;;;;;;5072201;28;19908;-76
2023/10/20 04:59:10;;;;;;;;;;;;;;;;;;5085226;28;19923;-76
2023/10/20 05:01:49;;;;;;;;;;;;;;;;;;5073591;28;19908;-75
2023/10/20 05:04:24;;;;;;;;;;;;;;;;;;5074115;28;19953;-76
2023/10/20 05:07:05;;;;;;;;;;;;;;;;;;5083776;28;19911;-75
2023/10/20 05:09:33;;;;;;;;;;;;;;;;;;5075533;28;19991;-74
2023/10/20 05:11:59;;;;;;;;;;;;;;;;;;5076086;28;19904;-75
2023/10/20 05:14:27;;;;;;;;;;;;;;;;;;5070359;28;19904;-77
2023/10/20 05:16:55;;;;;;;;;;;;;;;;;;5076470;28;20440;-77
2023/10/20 05:19:21;;;;;;;;;;;;;;;;;;5081072;28;19915;-76
2023/10/20 05:21:47;;;;;;;;;;;;;;;;;;5075604;28;19909;-76
2023/10/20 05:24:13;;;;;;;;;;;;;;;;;;5072988;28;19904;-76
2023/10/20 05:26:39;;;;;;;;;;;;;;;;;;5071006;28;19904;-76
2023/10/20 05:29:07;;;;;;;;;;;;;;;;;;5072671;28;19905;-76
2023/10/20 05:31:34;;;;;;;;;;;;;;;;;;5072525;28;19910;-75
2023/10/20 05:34:00;;;;;;;;;;;;;;;;;;5071627;28;20347;-76
2023/10/20 05:36:27;;;;;;;;;;;;;;;;;;5073687;28;19996;-76
2023/10/20 05:38:53;;;;;;;;;;;;;;;;;;5074136;28;19905;-77
2023/10/20 05:41:19;;;;;;;;;;;;;;;;;;5073852;28;19908;-76
2023/10/20 05:43:45;;;;;;;;;;;;;;;;;;5074882;28;20286;-77
2023/10/20 05:46:11;;;;;;;;;;;;;;;;;;5083638;28;20290;-75
2023/10/20 05:48:38;;;;;;;;;;;;;;;;;;5090944;28;20008;-77
2023/10/20 05:51:04;;;;;;;;;;;;;;;;;;5093035;28;19911;-76
2023/10/20 05:53:30;;;;;;;;;;;;;;;;;;5094122;28;19940;-75
2023/10/20 05:55:56;;;;;;;;;;;;;;;;;;5086038;28;19912;-76
2023/10/20 05:58:22;;;;;;;;;;;;;;;;;;5073146;28;19909;-77
2023/10/20 06:00:48;;;;;;;;;;;;;;;;;;5070889;28;19914;-78
2023/10/20 06:03:14;;;;;;;;;;;;;;;;;;5058078;28;19979;-79
2023/10/20 06:05:40;;;;;;;;;;;;;;;;;;5068943;28;19926;-79
2023/10/20 06:08:06;;;;;;;;;;;;;;;;;;5060873;28;19932;-76
2023/10/20 06:10:32;;;;;;;;;;;;;;;;;;5068622;28;19912;-77
2023/10/20 06:12:58;;;;;;;;;;;;;;;;;;5074032;28;19910;-77
2023/10/20 06:15:24;;;;;;;;;;;;;;;;;;5076389;28;19908;-77
2023/10/20 06:17:50;;;;;;;;;;;;;;;;;;5080209;28;19905;-77
2023/10/20 06:20:16;;;;;;;;;;;;;;;;;;5057472;28;19908;-78
2023/10/20 06:22:42;;;;;;;;;;;;;;;;;;5057076;28;19908;-77
2023/10/20 06:25:14;;;;;;;;;;;;;;;;;;5057469;28;20204;-75
2023/10/20 06:27:40;;;;;;;;;;;;;;;;;;5065923;28;19944;-76
2023/10/20 06:30:06;;;;;;;;;;;;;;;;;;5074135;28;19904;-77
2023/10/20 06:32:41;;;;;;;;;;;;;;;;;;5077486;28;19951;-77
2023/10/20 06:35:09;;;;;;;;;;;;;;;;;;5081640;28;19915;-79
2023/10/20 06:37:46;;;;;;;;;;;;;;;;;;5077871;28;20270;-78
2023/10/20 06:40:15;;;;;;;;;;;;;;;;;;5063730;28;19920;-77
2023/10/20 06:42:41;;;;;;;;;;;;;;;;;;5063361;28;19920;-77
2023/10/20 06:45:07;;;;;;;;;;;;;;;;;;5067159;28;19908;-77
2023/10/20 06:47:34;;;;;;;;;;;;;;;;;;5075871;28;19904;-77
2023/10/20 06:50:00;;;;;;;;;;;;;;;;;;5068794;28;19977;-78
2023/10/20 06:52:26;;;;;;;;;;;;;;;;;;5058674;28;20039;-78
2023/10/20 06:54:56;;;;;;;;;;;;;;;;;;5060394;28;19908;-78
2023/10/20 06:57:22;;;;;;;;;;;;;;;;;;5060684;28;19909;-77
2023/10/20 06:59:48;;;;;;;;;;;;;;;;;;5064197;28;19935;-77
2023/10/20 07:02:14;;;;;;;;;;;;;;;;;;5081521;28;19952;-78
2023/10/20 07:04:41;;;;;;;;;;;;;;;;;;5078413;28;19911;-77
2023/10/20 07:07:12;;;;;;;;;;;;;;;;;;5076849;28;20262;-78
2023/10/20 07:09:38;;;;;;;;;;;;;;;;;;5081216;28;19905;-78
2023/10/20 07:12:06;;;;;;;;;;;;;;;;;;5080672;28;19905;-78
2023/10/20 07:14:32;;;;;;;;;;;;;;;;;;5080339;28;19904;-79
2023/10/20 07:17:01;;;;;;;;;;;;;;;;;;5076792;28;19991;-77
2023/10/20 07:19:27;;;;;;;;;;;;;;;;;;5078237;28;19965;-77
2023/10/20 07:21:54;;;;;;;;;;;;;;;;;;5080017;28;19955;-77
2023/10/20 07:24:19;;;;;;;;;;;;;;;;;;5079841;28;19915;-77
2023/10/20 07:26:46;;;;;;;;;;;;;;;;;;5083003;28;20055;-78
2023/10/20 07:29:12;;;;;;;;;;;;;;;;;;5074203;28;19943;-78
2023/10/20 07:31:40;;;;;;;;;;;;;;;;;;5071832;28;19988;-77
2023/10/20 07:34:09;;;;;;;;;;;;;;;;;;5078129;28;20354;-78
2023/10/20 07:36:35;;;;;;;;;;;;;;;;;;5078520;28;20353;-78
2023/10/20 07:39:01;;;;;;;;;;;;;;;;;;5080082;28;20073;-78
2023/10/20 07:41:27;;;;;;;;;;;;;;;;;;5080707;28;19916;-77
2023/10/20 07:43:53;;;;;;;;;;;;;;;;;;5080216;28;19905;-77
2023/10/20 07:46:21;;;;;;;;;;;;;;;;;;5080080;28;19934;-78
2023/10/20 07:48:47;;;;;;;;;;;;;;;;;;5079178;28;20279;-78
2023/10/20 07:51:13;;;;;;;;;;;;;;;;;;5079507;28;19904;-77
2023/10/20 07:53:39;;;;;;;;;;;;;;;;;;5079764;28;19932;-78
2023/10/20 07:56:05;;;;;;;;;;;;;;;;;;5074808;28;19959;-77
2023/10/20 07:58:31;;;;;;;;;;;;;;;;;;5061860;28;19912;-77
2023/10/20 08:00:57;;;;;;;;;;;;;;;;;;5061914;28;19911;-78
2023/10/20 08:03:23;;;;;;;;;;;;;;;;;;5058636;28;19927;-79
2023/10/20 08:05:49;;;;;;;;;;;;;;;;;;5057707;28;19920;-77
2023/10/20 08:08:15;;;;;;;;;;;;;;;;;;5059763;28;19994;-80
2023/10/20 08:10:42;;;;;;;;;;;;;;;;;;5060711;28;20321;-77
2023/10/20 08:13:09;;;;;;;;;;;;;;;;;;5076769;28;20274;-77
2023/10/20 08:15:35;;;;;;;;;;;;;;;;;;5076260;28;19912;-77
2023/10/20 08:18:01;;;;;;;;;;;;;;;;;;5075602;28;19908;-76
2023/10/20 08:20:27;;;;;;;;;;;;;;;;;;5067952;28;19942;-77
2023/10/20 08:22:53;;;;;;;;;;;;;;;;;;5056439;28;19970;-77
2023/10/20 08:25:19;;;;;;;;;;;;;;;;;;5056714;28;19912;-77
2023/10/20 08:27:45;;;;;;;;;;;;;;;;;;5056252;28;19905;-77
2023/10/20 08:30:11;;;;;;;;;;;;;;;;;;5055343;28;19963;-77
2023/10/20 08:32:38;;;;;;;;;;;;;;;;;;5055250;28;19904;-77
2023/10/20 08:35:05;;;;;;;;;;;;;;;;;;5052786;28;19971;-76
2023/10/20 08:37:31;;;;;;;;;;;;;;;;;;5069442;28;19916;-77
2023/10/20 08:39:57;;;;;;;;;;;;;;;;;;5072646;28;20001;-77
2023/10/20 08:42:23;;;;;;;;;;;;;;;;;;5074473;28;19908;-77
2023/10/20 08:44:50;;;;;;;;;;;;;;;;;;5073933;28;19953;-77
2023/10/20 08:47:16;;;;;;;;;;;;;;;;;;5071751;28;19924;-76
2023/10/20 08:49:42;;;;;;;;;;;;;;;;;;5074581;28;19908;-78
2023/10/20 08:52:08;;;;;;;;;;;;;;;;;;5079154;28;20049;-77
2023/10/20 08:54:34;;;;;;;;;;;;;;;;;;5076609;28;19931;-77
2023/10/20 08:57:00;;;;;;;;;;;;;;;;;;5075432;28;19920;-77
2023/10/20 08:59:26;;;;;;;;;;;;;;;;;;5077174;28;19911;-77
2023/10/20 09:01:52;;;;;;;;;;;;;;;;;;5074764;28;19916;-77
2023/10/20 09:04:18;;;;;;;;;;;;;;;;;;5075912;28;19915;-77
2023/10/20 09:06:44;;;;;;;;;;;;;;;;;;5081169;28;19904;-75
2023/10/20 09:09:10;;;;;;;;;;;;;;;;;;5076350;28;19948;-76
2023/10/20 09:11:36;;;;;;;;;;;;;;;;;;5076009;28;19905;-77
2023/10/20 09:14:02;;;;;;;;;;;;;;;;;;5075333;28;20386;-77
2023/10/20 09:16:28;;;;;;;;;;;;;;;;;;5073284;28;19916;-76
2023/10/20 09:18:54;;;;;;;;;;;;;;;;;;5061286;28;19908;-76
2023/10/20 09:21:20;;;;;;;;;;;;;;;;;;5054982;28;19917;-76
2023/10/20 09:23:46;;;;;;;;;;;;;;;;;;5053852;28;19915;-75
2023/10/20 09:26:12;;;;;;;;;;;;;;;;;;5053337;28;19905;-79
2023/10/20 09:28:38;;;;;;;;;;;;;;;;;;5054398;28;19916;-77
2023/10/20 09:31:04;;;;;;;;;;;;;;;;;;5052386;28;20240;-76
2023/10/20 09:33:30;;;;;;;;;;;;;;;;;;5053930;28;19904;-78
2023/10/20 09:35:56;;;;;;;;;;;;;;;;;;5053409;28;19951;-76
2023/10/20 09:38:22;;;;;;;;;;;;;;;;;;5062858;28;19908;-76
2023/10/20 09:40:48;;;;;;;;;;;;;;;;;;5074103;28;19904;-77
2023/10/20 09:43:14;;;;;;;;;;;;;;;;;;5072740;28;19914;-77
2023/10/20 09:45:40;;;;;;;;;;;;;;;;;;5069683;28;19919;-77
2023/10/20 09:48:06;;;;;;;;;;;;;;;;;;5073281;28;19939;-77
2023/10/20 09:50:32;;;;;;;;;;;;;;;;;;5075514;28;20022;-77
2023/10/20 09:52:58;;;;;;;;;;;;;;;;;;5079410;28;19950;-76
2023/10/20 09:55:24;;;;;;;;;;;;;;;;;;5078244;28;20282;-77
2023/10/20 09:57:50;;;;;;;;;;;;;;;;;;5076867;28;19968;-76
2023/10/20 10:00:19;;;;;;;;;;;;;;;;;;5057682;28;20366;-77
2023/10/20 10:02:45;;;;;;;;;;;;;;;;;;5058277;28;19916;-77
2023/10/20 10:05:13;;;;;;;;;;;;;;;;;;5058655;28;19909;-76
2023/10/20 10:07:39;;;;;;;;;;;;;;;;;;5060312;28;19996;-77
2023/10/20 10:10:06;;;;;;;;;;;;;;;;;;5068774;28;19904;-77
2023/10/20 10:12:32;;;;;;;;;;;;;;;;;;5080487;28;19919;-76
2023/10/20 10:14:59;;;;;;;;;;;;;;;;;;5086886;28;19905;-75
2023/10/20 10:17:26;;;;;;;;;;;;;;;;;;5079170;28;19962;-76
2023/10/20 10:19:52;;;;;;;;;;;;;;;;;;5064750;28;20327;-76
2023/10/20 10:22:18;;;;;;;;;;;;;;;;;;5058042;28;19909;-76
2023/10/20 10:24:44;;;;;;;;;;;;;;;;;;5058270;28;19905;-77
2023/10/20 10:27:13;;;;;;;;;;;;;;;;;;5064149;28;19911;-77
2023/10/20 10:29:39;;;;;;;;;;;;;;;;;;5076857;28;19904;-77
2023/10/20 10:32:05;;;;;;;;;;;;;;;;;;5077578;28;20321;-78
2023/10/20 10:34:31;;;;;;;;;;;;;;;;;;5071101;28;20003;-76
2023/10/20 10:36:57;;;;;;;;;;;;;;;;;;5080545;28;20389;-78
2023/10/20 10:39:24;;;;;;;;;;;;;;;;;;5065241;28;19913;-77
2023/10/20 10:41:50;;;;;;;;;;;;;;;;;;5073039;28;19912;-78
2023/10/20 10:44:16;;;;;;;;;;;;;;;;;;5081641;28;19915;-78
2023/10/20 10:46:42;;;;;;;;;;;;;;;;;;5077937;28;19920;-76
2023/10/20 10:49:09;;;;;;;;;;;;;;;;;;5085548;28;19920;-76
2023/10/20 10:51:36;;;;;;;;;;;;;;;;;;5065144;28;19959;-78
2023/10/20 10:54:02;;;;;;;;;;;;;;;;;;5062248;28;19919;-77
2023/10/20 10:56:28;;;;;;;;;;;;;;;;;;5058930;28;19904;-77
2023/10/20 10:58:54;;;;;;;;;;;;;;;;;;5064198;28;19995;-77
2023/10/20 11:01:20;;;;;;;;;;;;;;;;;;5060814;28;20022;-77
2023/10/20 11:03:46;;;;;;;;;;;;;;;;;;5058039;28;19912;-77
2023/10/20 11:06:12;;;;;;;;;;;;;;;;;;5060367;28;20323;-78
2023/10/20 11:08:40;;;;;;;;;;;;;;;;;;5058053;28;19908;-77
2023/10/20 11:11:06;;;;;;;;;;;;;;;;;;5058936;28;19911;-77
2023/10/20 11:13:32;;;;;;;;;;;;;;;;;;5078381;28;19909;-77
2023/10/20 11:15:58;;;;;;;;;;;;;;;;;;5066396;28;19905;-77
2023/10/20 11:18:27;;;;;;;;;;;;;;;;;;5076997;28;19930;-77
2023/10/20 11:20:53;;;;;;;;;;;;;;;;;;5081996;28;19931;-76
2023/10/20 11:23:19;;;;;;;;;;;;;;;;;;5084551;28;19909;-77
2023/10/20 11:25:47;;;;;;;;;;;;;;;;;;5082586;28;20274;-76
2023/10/20 11:28:13;;;;;;;;;;;;;;;;;;5078149;28;19954;-76
2023/10/20 11:30:41;;;;;;;;;;;;;;;;;;5082443;28;19905;-77
2023/10/20 11:33:10;;;;;;;;;;;;;;;;;;5073423;28;19999;-78
2023/10/20 11:35:36;;;;;;;;;;;;;;;;;;5062079;28;19915;-78
2023/10/20 11:38:03;;;;;;;;;;;;;;;;;;5076202;28;19998;-77
2023/10/20 11:40:29;;;;;;;;;;;;;;;;;;5075949;28;20381;-76
2023/10/20 11:42:55;;;;;;;;;;;;;;;;;;5075621;28;19947;-79
2023/10/20 11:45:21;;;;;;;;;;;;;;;;;;5072821;28;19908;-76
2023/10/20 11:47:47;;;;;;;;;;;;;;;;;;5067255;28;19973;-76
2023/10/20 11:50:15;;;;;;;;;;;;;;;;;;5074311;28;20255;-77
2023/10/20 11:52:41;;;;;;;;;;;;;;;;;;5067236;28;19939;-77
2023/10/20 11:55:08;;;;;;;;;;;;;;;;;;5065398;28;20351;-76
2023/10/20 11:57:34;;;;;;;;;;;;;;;;;;5061754;28;19951;-76
2023/10/20 12:00:10;;;;;;;;;;;;;;;;;;5061637;28;20370;-76
2023/10/20 12:02:36;;;;;;;;;;;;;;;;;;5071983;28;20270;-76
2023/10/20 12:05:02;;;;;;;;;;;;;;;;;;5078455;28;19904;-78
2023/10/20 12:07:28;;;;;;;;;;;;;;;;;;5078289;28;19911;-78
2023/10/20 12:09:54;;;;;;;;;;;;;;;;;;5077655;28;19947;-76
2023/10/20 12:12:20;;;;;;;;;;;;;;;;;;5064557;28;20278;-76
2023/10/20 12:14:46;;;;;;;;;;;;;;;;;;5074883;28;19965;-76
2023/10/20 12:17:12;;;;;;;;;;;;;;;;;;5076853;28;19912;-77
2023/10/20 12:19:38;;;;;;;;;;;;;;;;;;5060136;28;19944;-77
2023/10/20 12:22:04;;;;;;;;;;;;;;;;;;5074947;28;19981;-77
2023/10/20 12:24:30;;;;;;;;;;;;;;;;;;5088346;28;20355;-77
2023/10/20 12:26:56;;;;;;;;;;;;;;;;;;5090883;28;19899;-79
2023/10/20 12:29:22;;;;;;;;;;;;;;;;;;5091346;28;19904;-78
2023/10/20 12:31:48;;;;;;;;;;;;;;;;;;5086175;28;20236;-77
2023/10/20 12:34:14;;;;;;;;;;;;;;;;;;5082982;28;19912;-77
2023/10/20 12:36:42;;;;;;;;;;;;;;;;;;5074480;28;19905;-77
2023/10/20 12:39:09;;;;;;;;;;;;;;;;;;5071676;28;19960;-76
2023/10/20 12:41:35;;;;;;;;;;;;;;;;;;5090555;28;19975;-78
2023/10/20 12:44:02;;;;;;;;;;;;;;;;;;5063914;28;20049;-77
2023/10/20 12:46:28;;;;;;;;;;;;;;;;;;5060696;28;19912;-77
2023/10/20 12:48:54;;;;;;;;;;;;;;;;;;5067836;28;19904;-78
2023/10/20 12:51:20;;;;;;;;;;;;;;;;;;5080306;28;19939;-77
2023/10/20 12:53:46;;;;;;;;;;;;;;;;;;5082134;28;19904;-78
2023/10/20 12:56:12;;;;;;;;;;;;;;;;;;5075700;28;20360;-77
2023/10/20 12:58:38;;;;;;;;;;;;;;;;;;5075190;28;19912;-78
2023/10/20 13:01:04;;;;;;;;;;;;;;;;;;5069267;28;19954;-78
2023/10/20 13:03:30;;;;;;;;;;;;;;;;;;5071403;28;19919;-77
2023/10/20 13:05:56;;;;;;;;;;;;;;;;;;5076023;28;19905;-77
2023/10/20 13:08:23;;;;;;;;;;;;;;;;;;5077437;28;19915;-77
2023/10/20 13:10:49;;;;;;;;;;;;;;;;;;5076113;28;20006;-78
2023/10/20 13:13:17;;;;;;;;;;;;;;;;;;5060958;28;19940;-76
2023/10/20 13:15:43;;;;;;;;;;;;;;;;;;5061138;28;19954;-77
2023/10/20 13:18:11;;;;;;;;;;;;;;;;;;5064796;28;19905;-77
2023/10/20 13:20:37;;;;;;;;;;;;;;;;;;5069258;28;19912;-78
2023/10/20 13:23:03;;;;;;;;;;;;;;;;;;5064686;28;19962;-77
2023/10/20 13:25:30;;;;;;;;;;;;;;;;;;5068028;28;19908;-77
2023/10/20 13:27:59;;;;;;;;;;;;;;;;;;5072310;28;19950;-77
2023/10/20 13:30:25;;;;;;;;;;;;;;;;;;5056914;28;20348;-76
2023/10/20 13:32:50;;;;;;;;;;;;;;;;;;5055130;28;19905;-77
2023/10/20 13:35:17;;;;;;;;;;;;;;;;;;5055049;28;19916;-77
2023/10/20 13:37:43;;;;;;;;;;;;;;;;;;5054982;28;19928;-77
2023/10/20 13:40:10;;;;;;;;;;;;;;;;;;5054026;28;20358;-77
2023/10/20 13:42:36;;;;;;;;;;;;;;;;;;5068615;28;19952;-77
2023/10/20 13:45:03;;;;;;;;;;;;;;;;;;5070873;28;19908;-77
2023/10/20 13:47:29;;;;;;;;;;;;;;;;;;5071236;28;20009;-77
2023/10/20 13:49:55;;;;;;;;;;;;;;;;;;5073950;28;19908;-76
2023/10/20 13:52:22;;;;;;;;;;;;;;;;;;5073783;28;19904;-76
2023/10/20 13:54:48;;;;;;;;;;;;;;;;;;5073621;28;19957;-76
2023/10/20 13:57:14;;;;;;;;;;;;;;;;;;5073708;28;20379;-77
2023/10/20 13:59:40;;;;;;;;;;;;;;;;;;5073915;28;19995;-77
2023/10/20 14:02:06;;;;;;;;;;;;;;;;;;5075092;28;19908;-77
2023/10/20 14:04:32;;;;;;;;;;;;;;;;;;5074819;28;19915;-77
2023/10/20 14:06:58;;;;;;;;;;;;;;;;;;5074274;28;19908;-77
2023/10/20 14:09:25;;;;;;;;;;;;;;;;;;5073835;28;19916;-76
2023/10/20 14:11:51;;;;;;;;;;;;;;;;;;5071731;28;19966;-77
2023/10/20 14:14:17;;;;;;;;;;;;;;;;;;5073950;28;20331;-77
2023/10/20 14:16:43;;;;;;;;;;;;;;;;;;5063021;28;19904;-77
2023/10/20 14:19:09;;;;;;;;;;;;;;;;;;5073264;28;19911;-77
2023/10/20 14:21:35;;;;;;;;;;;;;;;;;;5074328;28;19943;-77
2023/10/20 14:24:01;;;;;;;;;;;;;;;;;;5074951;28;19925;-76
2023/10/20 14:26:27;;;;;;;;;;;;;;;;;;5053235;28;19908;-76
2023/10/20 14:28:53;;;;;;;;;;;;;;;;;;5053276;28;19904;-77
2023/10/20 14:31:20;;;;;;;;;;;;;;;;;;5057483;28;19905;-76
2023/10/20 14:33:46;;;;;;;;;;;;;;;;;;5062648;28;19909;-76
2023/10/20 14:36:13;;;;;;;;;;;;;;;;;;5055651;28;19932;-76
2023/10/20 14:38:39;;;;;;;;;;;;;;;;;;5058327;28;20367;-75
2023/10/20 14:41:13;;;;;;;;;;;;;;;;;;5060681;28;19905;-76
2023/10/20 14:43:42;;;;;;;;;;;;;;;;;;5081192;28;19912;-77
2023/10/20 14:46:09;;;;;;;;;;;;;;;;;;5078518;28;19912;-77
2023/10/20 14:48:35;;;;;;;;;;;;;;;;;;5062642;28;19909;-77
2023/10/20 14:51:01;;;;;;;;;;;;;;;;;;5057574;28;19905;-77
2023/10/20 14:53:28;;;;;;;;;;;;;;;;;;5070148;28;20290;-77
2023/10/20 14:55:55;;;;;;;;;;;;;;;;;;5070960;28;20011;-76
2023/10/20 14:58:20;;;;;;;;;;;;;;;;;;5073257;28;19909;-76
2023/10/20 15:00:52;;;;;;;;;;;;;;;;;;5061228;28;19993;-77
2023/10/20 15:03:21;;;;;;;;;;;;;;;;;;5057211;28;19991;-77
2023/10/20 15:05:47;;;;;;;;;;;;;;;;;;5054860;28;20379;-78
2023/10/20 15:08:13;;;;;;;;;;;;;;;;;;5059703;28;19980;-78
2023/10/20 15:10:39;;;;;;;;;;;;;;;;;;5056785;28;20027;-77
2023/10/20 15:13:05;;;;;;;;;;;;;;;;;;5076340;28;19908;-77
2023/10/20 15:15:31;;;;;;;;;;;;;;;;;;5082159;28;19904;-77
2023/10/20 15:17:57;;;;;;;;;;;;;;;;;;5085312;28;20395;-77
2023/10/20 15:20:23;;;;;;;;;;;;;;;;;;5097371;28;19908;-77
2023/10/20 15:22:51;;;;;;;;;;;;;;;;;;5095037;28;19991;-77
2023/10/20 15:25:17;;;;;;;;;;;;;;;;;;5091888;28;19938;-78
2023/10/20 15:27:43;;;;;;;;;;;;;;;;;;5086902;28;19904;-76
2023/10/20 15:30:08;;;;;;;;;;;;;;;;;;5077261;28;19949;-77
2023/10/20 15:32:34;;;;;;;;;;;;;;;;;;5090624;28;19893;-77
2023/10/20 15:35:00;;;;;;;;;;;;;;;;;;5091193;28;19943;-78
2023/10/20 15:37:26;;;;;;;;;;;;;;;;;;5076109;28;19910;-76
2023/10/20 15:39:52;;;;;;;;;;;;;;;;;;5075716;28;20424;-76
2023/10/20 15:42:18;;;;;;;;;;;;;;;;;;5075361;28;19974;-77
2023/10/20 15:44:44;;;;;;;;;;;;;;;;;;5074822;28;19904;-77
2023/10/20 15:47:10;;;;;;;;;;;;;;;;;;5069076;28;19908;-77
2023/10/20 15:49:36;;;;;;;;;;;;;;;;;;5055883;28;19947;-77
2023/10/20 15:52:03;;;;;;;;;;;;;;;;;;5056012;28;20557;-78
2023/10/20 15:54:29;;;;;;;;;;;;;;;;;;5069114;28;19909;-77
2023/10/20 15:56:55;;;;;;;;;;;;;;;;;;5076181;28;20029;-77
2023/10/20 15:59:21;;;;;;;;;;;;;;;;;;5076402;28;20436;-78
2023/10/20 16:01:47;;;;;;;;;;;;;;;;;;5075832;28;19916;-77
2023/10/20 16:04:13;;;;;;;;;;;;;;;;;;5077005;28;19905;-76
2023/10/20 16:06:40;;;;;;;;;;;;;;;;;;5074938;28;19901;-77
2023/10/20 16:09:07;;;;;;;;;;;;;;;;;;5075045;28;19982;-77
2023/10/20 16:11:33;;;;;;;;;;;;;;;;;;5073669;28;19904;-78
2023/10/20 16:14:00;;;;;;;;;;;;;;;;;;5074314;28;19978;-77
2023/10/20 16:16:26;;;;;;;;;;;;;;;;;;5067298;28;19904;-77
2023/10/20 16:18:52;;;;;;;;;;;;;;;;;;5074035;28;19932;-77
2023/10/20 16:23:55;;;;;;;0.88;0.57;;;;;;;;;;5133540;27;20195;-78
2023/10/20 16:26:21;;;;;;;0.50;0.50;;;;;;;;;;5131353;28;20051;-78
2023/10/20 16:28:47;;;;;;;0.65;0.65;;;;;;;;;;5137598;28;20023;-76
2023/10/20 16:31:13;;;;;;;1.23;0.63;;;;;;;;;;5139957;28;20042;-78
2023/10/20 16:33:40;;;;;;;0.68;0.50;;;;;;;;;;5139019;27;20397;-78
2023/10/20 16:36:06;;;;;;;1.50;0.80;;;;;;;;;;5119603;28;20024;-77
2023/10/20 16:38:32;;;;;;;1.00;0.57;;;;;;;;;;5109862;28;20032;-77
2023/10/20 16:40:59;;;;;;;0.60;0.60;;;;;;;;;;5109159;28;20393;-77
2023/10/20 16:43:25;;;;;;;0.73;0.60;;;;;;;;;;5129468;28;20118;-77
2023/10/20 16:45:52;;;;;;;0.55;0.47;;;;;;;;;;5129265;27;20023;-77
2023/10/20 16:48:18;;;;;;;0.68;0.60;;;;;;;;;;5133289;27;20011;-77
2023/10/20 16:50:44;;;;;;;0.50;0.50;;;;;;;;;;5133147;27;20024;-77
2023/10/20 16:53:10;;;;;;;0.75;0.68;;;;;;;;;;5129118;27;20027;-77
2023/10/20 16:55:40;;;;;;;0.90;0.70;;;;;;;;;;5128132;27;20427;-77
2023/10/20 16:58:07;;;;;;;0.60;0.60;;;;;;;;;;5128787;27;20493;-77
2023/10/20 17:00:34;;;;;;;0.77;0.40;;;;;;;;;;5129428;28;20516;-77
2023/10/20 17:03:00;;;;;;;0.65;0.65;;;;;;;;;;5129187;28;20027;-77